sensor_id;sensor_type;location;lat;lon;timestamp;temperature;humidity
29201;DHT22;16244;51.956;12.980;2023-04-01T00:00:41;9.30;99.90
29201;DHT22;16244;51.956;12.980;2023-04-01T00:03:27;9.20;99.90
29201;DHT22;16244;51.956;12.980;2023-04-01T00:06:23;9.20;99.90
29201;DHT22;16244;51.956;12.980;2023-04-01T00:09:22;9.20;99.90
29201;DHT22;16244;51.956;12.980;2023-04-01T00:12:25;9.30;99.90
29201;DHT22;16244;51.956;12.980;2023-04-01T00:15:11;9.30;99.90
29201;DHT22;16244;51.956;12.980;2023-04-01T00:18:15;9.30;99.90
29201;DHT22;16244;51.956;12.980;2023-04-01T00:20:57;9.30;99.90
29201;DHT22;16244;51.956;12.980;2023-04-01T00:23:47;9.20;99.90
29201;DHT22;16244;51.956;12.980;2023-04-01T00:27:00;9.30;99.90
29201;DHT22;16244;51.956;12.980;2023-04-01T00:29:57;9.30;99.90
29201;DHT22;16244;51.956;12.980;2023-04-01T00:32:39;9.20;99.90
29201;DHT22;16244;51.956;12.980;2023-04-01T00:35:22;9.20;99.90
29201;DHT22;16244;51.956;12.980;2023-04-01T00:38:19;9.20;99.90
29201;DHT22;16244;51.956;12.980;2023-04-01T00:41:16;9.20;99.90
29201;DHT22;16244;51.956;12.980;2023-04-01T00:48:01;9.20;99.90
29201;DHT22;16244;51.956;12.980;2023-04-01T00:50:54;9.20;99.90
29201;DHT22;16244;51.956;12.980;2023-04-01T00:53:44;9.20;99.90
29201;DHT22;16244;51.956;12.980;2023-04-01T00:56:45;9.10;99.90
29201;DHT22;16244;51.956;12.980;2023-04-01T00:59:34;9.10;99.90
29201;DHT22;16244;51.956;12.980;2023-04-01T01:02:18;9.10;99.90
29201;DHT22;16244;51.956;12.980;2023-04-01T01:05:18;9.10;99.90
29201;DHT22;16244;51.956;12.980;2023-04-01T01:08:10;9.10;99.90
29201;DHT22;16244;51.956;12.980;2023-04-01T01:10:55;9.10;99.90
29201;DHT22;16244;51.956;12.980;2023-04-01T01:13:58;9.10;99.90
29201;DHT22;16244;51.956;12.980;2023-04-01T01:16:56;9.10;99.90
29201;DHT22;16244;51.956;12.980;2023-04-01T01:20:30;9.10;99.90
29201;DHT22;16244;51.956;12.980;2023-04-01T01:23:55;9.10;99.90
29201;DHT22;16244;51.956;12.980;2023-04-01T01:26:53;9.10;99.90
29201;DHT22;16244;51.956;12.980;2023-04-01T01:30:30;9.10;99.90
29201;DHT22;16244;51.956;12.980;2023-04-01T01:33:24;9.10;99.90
29201;DHT22;16244;51.956;12.980;2023-04-01T01:36:31;9.10;99.90
29201;DHT22;16244;51.956;12.980;2023-04-01T01:39:14;9.10;99.90
29201;DHT22;16244;51.956;12.980;2023-04-01T01:42:15;9.10;99.90
29201;DHT22;16244;51.956;12.980;2023-04-01T01:45:13;9.10;99.90
29201;DHT22;16244;51.956;12.980;2023-04-01T01:48:02;9.10;99.90
29201;DHT22;16244;51.956;12.980;2023-04-01T01:50:50;9.10;99.90
29201;DHT22;16244;51.956;12.980;2023-04-01T01:54:05;9.10;99.90
29201;DHT22;16244;51.956;12.980;2023-04-01T01:57:06;9.10;99.90
29201;DHT22;16244;51.956;12.980;2023-04-01T02:00:02;9.10;99.90
29201;DHT22;16244;51.956;12.980;2023-04-01T02:02:54;9.20;99.90
29201;DHT22;16244;51.956;12.980;2023-04-01T02:05:36;9.10;99.90
29201;DHT22;16244;51.956;12.980;2023-04-01T02:08:35;9.20;99.90
29201;DHT22;16244;51.956;12.980;2023-04-01T02:11:36;9.20;99.90
29201;DHT22;16244;51.956;12.980;2023-04-01T02:14:22;9.20;99.90
29201;DHT22;16244;51.956;12.980;2023-04-01T02:17:20;9.10;99.90
29201;DHT22;16244;51.956;12.980;2023-04-01T02:20:14;9.10;99.90
29201;DHT22;16244;51.956;12.980;2023-04-01T02:22:57;9.10;99.90
29201;DHT22;16244;51.956;12.980;2023-04-01T02:25:54;9.10;99.90
29201;DHT22;16244;51.956;12.980;2023-04-01T02:32:10;9.10;99.90
29201;DHT22;16244;51.956;12.980;2023-04-01T02:35:07;9.10;99.90
29201;DHT22;16244;51.956;12.980;2023-04-01T02:38:05;9.10;99.90
29201;DHT22;16244;51.956;12.980;2023-04-01T02:41:02;9.00;99.90
29201;DHT22;16244;51.956;12.980;2023-04-01T02:43:31;9.10;99.90
29201;DHT22;16244;51.956;12.980;2023-04-01T02:46:20;9.00;99.90
29201;DHT22;16244;51.956;12.980;2023-04-01T02:52:35;9.00;99.90
29201;DHT22;16244;51.956;12.980;2023-04-01T02:55:32;9.00;99.90
29201;DHT22;16244;51.956;12.980;2023-04-01T02:57:59;9.00;99.90
29201;DHT22;16244;51.956;12.980;2023-04-01T03:00:41;8.90;99.90
29201;DHT22;16244;51.956;12.980;2023-04-01T03:03:25;8.90;99.90
29201;DHT22;16244;51.956;12.980;2023-04-01T03:06:11;8.90;99.90
29201;DHT22;16244;51.956;12.980;2023-04-01T03:09:17;8.90;99.90
29201;DHT22;16244;51.956;12.980;2023-04-01T03:12:13;8.80;99.90
29201;DHT22;16244;51.956;12.980;2023-04-01T03:14:59;8.80;99.90
29201;DHT22;16244;51.956;12.980;2023-04-01T03:17:43;8.90;99.90
29201;DHT22;16244;51.956;12.980;2023-04-01T03:20:26;8.90;99.90
29201;DHT22;16244;51.956;12.980;2023-04-01T03:23:21;8.90;99.90
29201;DHT22;16244;51.956;12.980;2023-04-01T03:26:11;8.90;99.90
29201;DHT22;16244;51.956;12.980;2023-04-01T03:29:06;8.90;99.90
29201;DHT22;16244;51.956;12.980;2023-04-01T03:31:49;9.00;99.90
29201;DHT22;16244;51.956;12.980;2023-04-01T03:34:32;8.90;99.90
29201;DHT22;16244;51.956;12.980;2023-04-01T03:37:30;8.90;99.90
29201;DHT22;16244;51.956;12.980;2023-04-01T03:40:25;8.90;99.90
29201;DHT22;16244;51.956;12.980;2023-04-01T03:43:27;8.90;99.90
29201;DHT22;16244;51.956;12.980;2023-04-01T03:46:22;8.90;99.90
29201;DHT22;16244;51.956;12.980;2023-04-01T03:49:09;8.90;99.90
29201;DHT22;16244;51.956;12.980;2023-04-01T03:51:52;8.90;99.90
29201;DHT22;16244;51.956;12.980;2023-04-01T03:54:39;8.90;99.90
29201;DHT22;16244;51.956;12.980;2023-04-01T03:57:27;8.90;99.90
29201;DHT22;16244;51.956;12.980;2023-04-01T04:00:32;8.80;99.90
29201;DHT22;16244;51.956;12.980;2023-04-01T04:03:24;8.80;99.90
29201;DHT22;16244;51.956;12.980;2023-04-01T04:06:15;8.80;99.90
29201;DHT22;16244;51.956;12.980;2023-04-01T04:08:57;8.80;99.90
29201;DHT22;16244;51.956;12.980;2023-04-01T04:11:43;8.80;99.90
29201;DHT22;16244;51.956;12.980;2023-04-01T04:14:38;8.80;99.90
29201;DHT22;16244;51.956;12.980;2023-04-01T04:17:48;8.80;99.90
29201;DHT22;16244;51.956;12.980;2023-04-01T04:20:25;8.80;99.90
29201;DHT22;16244;51.956;12.980;2023-04-01T04:23:21;8.90;99.90
29201;DHT22;16244;51.956;12.980;2023-04-01T04:26:02;8.90;99.90
29201;DHT22;16244;51.956;12.980;2023-04-01T04:28:45;8.80;99.90
29201;DHT22;16244;51.956;12.980;2023-04-01T04:31:29;8.90;99.90
29201;DHT22;16244;51.956;12.980;2023-04-01T04:34:31;8.90;99.90
29201;DHT22;16244;51.956;12.980;2023-04-01T04:37:26;8.90;99.90
29201;DHT22;16244;51.956;12.980;2023-04-01T04:40:10;8.90;99.90
29201;DHT22;16244;51.956;12.980;2023-04-01T04:42:52;8.90;99.90
29201;DHT22;16244;51.956;12.980;2023-04-01T04:45:47;8.80;99.90
29201;DHT22;16244;51.956;12.980;2023-04-01T04:48:30;8.80;99.90
29201;DHT22;16244;51.956;12.980;2023-04-01T04:54:45;8.90;99.90
29201;DHT22;16244;51.956;12.980;2023-04-01T04:57:41;8.90;99.90
29201;DHT22;16244;51.956;12.980;2023-04-01T05:00:24;8.90;99.90
29201;DHT22;16244;51.956;12.980;2023-04-01T05:03:07;8.80;99.90
29201;DHT22;16244;51.956;12.980;2023-04-01T05:06:03;8.90;99.90
29201;DHT22;16244;51.956;12.980;2023-04-01T05:08:45;8.90;99.90
29201;DHT22;16244;51.956;12.980;2023-04-01T05:18:09;9.00;99.90
29201;DHT22;16244;51.956;12.980;2023-04-01T05:21:01;9.00;99.90
29201;DHT22;16244;51.956;12.980;2023-04-01T05:23:49;9.00;99.90
29201;DHT22;16244;51.956;12.980;2023-04-01T05:26:34;9.00;99.90
29201;DHT22;16244;51.956;12.980;2023-04-01T05:29:19;9.10;99.90
29201;DHT22;16244;51.956;12.980;2023-04-01T05:32:15;9.10;99.90
29201;DHT22;16244;51.956;12.980;2023-04-01T05:35:25;9.10;99.90
29201;DHT22;16244;51.956;12.980;2023-04-01T05:38:22;9.20;99.90
29201;DHT22;16244;51.956;12.980;2023-04-01T05:41:07;9.20;99.90
29201;DHT22;16244;51.956;12.980;2023-04-01T05:43:50;9.30;99.90
29201;DHT22;16244;51.956;12.980;2023-04-01T05:46:37;9.30;99.90
29201;DHT22;16244;51.956;12.980;2023-04-01T05:49:26;9.40;99.90
29201;DHT22;16244;51.956;12.980;2023-04-01T05:59:00;9.50;99.90
29201;DHT22;16244;51.956;12.980;2023-04-01T06:01:57;9.50;99.90
29201;DHT22;16244;51.956;12.980;2023-04-01T06:05:02;9.50;99.90
29201;DHT22;16244;51.956;12.980;2023-04-01T06:08:01;9.50;99.90
29201;DHT22;16244;51.956;12.980;2023-04-01T06:10:42;9.50;99.90
29201;DHT22;16244;51.956;12.980;2023-04-01T06:13:35;9.60;99.90
29201;DHT22;16244;51.956;12.980;2023-04-01T06:20:04;9.70;99.90
29201;DHT22;16244;51.956;12.980;2023-04-01T06:23:19;9.70;99.90
29201;DHT22;16244;51.956;12.980;2023-04-01T06:26:03;9.80;99.90
29201;DHT22;16244;51.956;12.980;2023-04-01T06:28:54;9.90;99.90
29201;DHT22;16244;51.956;12.980;2023-04-01T06:34:29;10.00;99.90
29201;DHT22;16244;51.956;12.980;2023-04-01T06:37:10;9.90;99.90
29201;DHT22;16244;51.956;12.980;2023-04-01T06:39:57;9.90;99.90
29201;DHT22;16244;51.956;12.980;2023-04-01T06:42:40;10.00;99.90
29201;DHT22;16244;51.956;12.980;2023-04-01T06:45:25;10.00;99.90
29201;DHT22;16244;51.956;12.980;2023-04-01T06:48:07;10.00;99.90
29201;DHT22;16244;51.956;12.980;2023-04-01T06:50:44;10.00;99.90
29201;DHT22;16244;51.956;12.980;2023-04-01T06:53:21;10.10;99.90
29201;DHT22;16244;51.956;12.980;2023-04-01T06:55:55;10.10;99.90
29201;DHT22;16244;51.956;12.980;2023-04-01T06:58:27;10.20;99.90
29201;DHT22;16244;51.956;12.980;2023-04-01T07:00:58;10.20;99.90
29201;DHT22;16244;51.956;12.980;2023-04-01T07:03:32;10.30;99.90
29201;DHT22;16244;51.956;12.980;2023-04-01T07:06:03;10.30;99.90
29201;DHT22;16244;51.956;12.980;2023-04-01T07:08:35;10.30;99.90
29201;DHT22;16244;51.956;12.980;2023-04-01T07:11:05;10.20;99.90
29201;DHT22;16244;51.956;12.980;2023-04-01T07:13:36;10.30;99.90
29201;DHT22;16244;51.956;12.980;2023-04-01T07:16:12;10.30;99.90
29201;DHT22;16244;51.956;12.980;2023-04-01T07:18:44;10.40;99.90
29201;DHT22;16244;51.956;12.980;2023-04-01T07:21:22;10.50;99.90
29201;DHT22;16244;51.956;12.980;2023-04-01T07:23:53;10.40;99.90
29201;DHT22;16244;51.956;12.980;2023-04-01T07:26:23;10.50;99.90
29201;DHT22;16244;51.956;12.980;2023-04-01T07:28:52;10.60;99.90
29201;DHT22;16244;51.956;12.980;2023-04-01T07:31:30;10.70;99.90
29201;DHT22;16244;51.956;12.980;2023-04-01T07:34:07;10.80;99.90
29201;DHT22;16244;51.956;12.980;2023-04-01T07:36:39;10.80;99.90
29201;DHT22;16244;51.956;12.980;2023-04-01T07:39:22;10.70;99.90
29201;DHT22;16244;51.956;12.980;2023-04-01T07:41:59;10.80;99.90
29201;DHT22;16244;51.956;12.980;2023-04-01T07:44:35;10.90;99.90
29201;DHT22;16244;51.956;12.980;2023-04-01T07:47:22;11.00;99.90
29201;DHT22;16244;51.956;12.980;2023-04-01T07:50:01;11.10;99.90
29201;DHT22;16244;51.956;12.980;2023-04-01T07:52:36;11.40;99.90
29201;DHT22;16244;51.956;12.980;2023-04-01T07:55:14;11.50;99.90
29201;DHT22;16244;51.956;12.980;2023-04-01T07:57:48;11.60;99.90
29201;DHT22;16244;51.956;12.980;2023-04-01T08:00:20;11.70;99.90
29201;DHT22;16244;51.956;12.980;2023-04-01T08:03:03;11.70;99.90
29201;DHT22;16244;51.956;12.980;2023-04-01T08:05:40;11.80;99.90
29201;DHT22;16244;51.956;12.980;2023-04-01T08:08:14;11.90;99.90
29201;DHT22;16244;51.956;12.980;2023-04-01T08:10:49;11.90;99.90
29201;DHT22;16244;51.956;12.980;2023-04-01T08:13:26;11.90;99.70
29201;DHT22;16244;51.956;12.980;2023-04-01T08:16:06;12.00;99.90
29201;DHT22;16244;51.956;12.980;2023-04-01T08:18:41;12.00;99.90
29201;DHT22;16244;51.956;12.980;2023-04-01T08:21:15;11.90;99.30
29201;DHT22;16244;51.956;12.980;2023-04-01T08:23:48;12.00;99.80
29201;DHT22;16244;51.956;12.980;2023-04-01T08:26:26;12.00;99.50
29201;DHT22;16244;51.956;12.980;2023-04-01T08:28:59;11.90;99.10
29201;DHT22;16244;51.956;12.980;2023-04-01T08:31:30;12.10;99.30
29201;DHT22;16244;51.956;12.980;2023-04-01T08:34:01;12.10;99.70
29201;DHT22;16244;51.956;12.980;2023-04-01T08:36:33;12.20;98.70
29201;DHT22;16244;51.956;12.980;2023-04-01T08:39:05;12.10;98.40
29201;DHT22;16244;51.956;12.980;2023-04-01T08:41:58;12.10;98.30
29201;DHT22;16244;51.956;12.980;2023-04-01T08:44:40;12.20;99.00
29201;DHT22;16244;51.956;12.980;2023-04-01T08:47:24;12.40;98.90
29201;DHT22;16244;51.956;12.980;2023-04-01T08:53:06;12.30;97.90
29201;DHT22;16244;51.956;12.980;2023-04-01T08:55:43;12.50;97.40
29201;DHT22;16244;51.956;12.980;2023-04-01T09:01:26;12.50;95.70
29201;DHT22;16244;51.956;12.980;2023-04-01T09:04:24;12.50;95.60
29201;DHT22;16244;51.956;12.980;2023-04-01T09:07:06;12.80;95.40
29201;DHT22;16244;51.956;12.980;2023-04-01T09:09:48;12.60;94.90
29201;DHT22;16244;51.956;12.980;2023-04-01T09:18:18;12.50;95.50
29201;DHT22;16244;51.956;12.980;2023-04-01T09:21:01;12.50;95.60
29201;DHT22;16244;51.956;12.980;2023-04-01T09:23:48;12.70;95.40
29201;DHT22;16244;51.956;12.980;2023-04-01T09:26:47;12.70;95.60
29201;DHT22;16244;51.956;12.980;2023-04-01T09:29:38;12.80;95.30
29201;DHT22;16244;51.956;12.980;2023-04-01T09:35:21;12.80;93.90
29201;DHT22;16244;51.956;12.980;2023-04-01T09:37:57;12.70;93.90
29201;DHT22;16244;51.956;12.980;2023-04-01T09:40:33;12.50;94.20
29201;DHT22;16244;51.956;12.980;2023-04-01T09:43:25;12.50;94.20
29201;DHT22;16244;51.956;12.980;2023-04-01T09:46:15;12.50;94.30
29201;DHT22;16244;51.956;12.980;2023-04-01T09:49:24;12.40;94.10
29201;DHT22;16244;51.956;12.980;2023-04-01T09:52:06;12.30;94.20
29201;DHT22;16244;51.956;12.980;2023-04-01T09:54:51;12.10;94.40
29201;DHT22;16244;51.956;12.980;2023-04-01T09:57:47;12.30;94.90
29201;DHT22;16244;51.956;12.980;2023-04-01T10:00:32;12.90;94.10
29201;DHT22;16244;51.956;12.980;2023-04-01T10:03:33;14.10;91.80
29201;DHT22;16244;51.956;12.980;2023-04-01T10:06:31;15.50;88.20
29201;DHT22;16244;51.956;12.980;2023-04-01T10:09:23;16.60;83.80
29201;DHT22;16244;51.956;12.980;2023-04-01T10:12:47;17.20;78.20
29201;DHT22;16244;51.956;12.980;2023-04-01T10:15:57;18.40;75.60
29201;DHT22;16244;51.956;12.980;2023-04-01T10:26:09;18.50;72.50
29201;DHT22;16244;51.956;12.980;2023-04-01T10:32:17;16.20;76.80
29201;DHT22;16244;51.956;12.980;2023-04-01T10:35:03;15.10;83.70
29201;DHT22;16244;51.956;12.980;2023-04-01T10:37:50;14.60;86.70
29201;DHT22;16244;51.956;12.980;2023-04-01T10:40:38;14.20;89.30
29201;DHT22;16244;51.956;12.980;2023-04-01T10:43:42;14.00;89.40
29201;DHT22;16244;51.956;12.980;2023-04-01T10:47:01;13.70;90.70
29201;DHT22;16244;51.956;12.980;2023-04-01T10:49:47;13.60;91.10
29201;DHT22;16244;51.956;12.980;2023-04-01T10:52:46;13.80;91.60
29201;DHT22;16244;51.956;12.980;2023-04-01T10:55:37;13.70;91.40
29201;DHT22;16244;51.956;12.980;2023-04-01T11:04:56;13.60;90.50
29201;DHT22;16244;51.956;12.980;2023-04-01T11:07:48;13.90;90.70
29201;DHT22;16244;51.956;12.980;2023-04-01T11:14:17;14.10;87.80
29201;DHT22;16244;51.956;12.980;2023-04-01T11:17:23;14.30;88.50
29201;DHT22;16244;51.956;12.980;2023-04-01T11:20:28;14.30;87.90
29201;DHT22;16244;51.956;12.980;2023-04-01T11:23:12;14.40;85.60
29201;DHT22;16244;51.956;12.980;2023-04-01T11:26:00;14.50;85.70
29201;DHT22;16244;51.956;12.980;2023-04-01T11:28:49;14.70;87.20
29201;DHT22;16244;51.956;12.980;2023-04-01T11:31:29;14.70;82.00
29201;DHT22;16244;51.956;12.980;2023-04-01T11:34:11;14.80;82.90
29201;DHT22;16244;51.956;12.980;2023-04-01T11:36:46;14.90;82.30
29201;DHT22;16244;51.956;12.980;2023-04-01T11:39:24;14.90;83.40
29201;DHT22;16244;51.956;12.980;2023-04-01T11:42:01;15.00;82.90
29201;DHT22;16244;51.956;12.980;2023-04-01T11:44:35;15.00;80.70
29201;DHT22;16244;51.956;12.980;2023-04-01T11:47:28;15.20;81.90
29201;DHT22;16244;51.956;12.980;2023-04-01T11:50:15;15.10;80.00
29201;DHT22;16244;51.956;12.980;2023-04-01T11:52:59;15.00;81.60
29201;DHT22;16244;51.956;12.980;2023-04-01T11:55:42;14.80;80.00
29201;DHT22;16244;51.956;12.980;2023-04-01T11:58:36;14.80;82.50
29201;DHT22;16244;51.956;12.980;2023-04-01T12:01:17;14.70;83.00
29201;DHT22;16244;51.956;12.980;2023-04-01T12:04:00;14.60;82.40
29201;DHT22;16244;51.956;12.980;2023-04-01T12:06:36;14.60;82.70
29201;DHT22;16244;51.956;12.980;2023-04-01T12:09:15;14.60;84.60
29201;DHT22;16244;51.956;12.980;2023-04-01T12:11:50;14.60;84.30
29201;DHT22;16244;51.956;12.980;2023-04-01T12:14:22;14.70;84.50
29201;DHT22;16244;51.956;12.980;2023-04-01T12:16:59;14.80;85.00
29201;DHT22;16244;51.956;12.980;2023-04-01T12:19:36;14.70;84.40
29201;DHT22;16244;51.956;12.980;2023-04-01T12:22:23;14.80;84.10
29201;DHT22;16244;51.956;12.980;2023-04-01T12:25:02;14.70;84.60
29201;DHT22;16244;51.956;12.980;2023-04-01T12:27:45;14.60;82.10
29201;DHT22;16244;51.956;12.980;2023-04-01T12:30:25;14.70;85.50
29201;DHT22;16244;51.956;12.980;2023-04-01T12:33:04;14.90;82.10
29201;DHT22;16244;51.956;12.980;2023-04-01T12:35:45;14.90;81.10
29201;DHT22;16244;51.956;12.980;2023-04-01T12:38:24;15.00;81.90
29201;DHT22;16244;51.956;12.980;2023-04-01T12:41:11;15.00;84.00
29201;DHT22;16244;51.956;12.980;2023-04-01T12:44:19;15.10;83.60
29201;DHT22;16244;51.956;12.980;2023-04-01T12:47:19;15.00;80.30
29201;DHT22;16244;51.956;12.980;2023-04-01T12:49:56;14.80;81.10
29201;DHT22;16244;51.956;12.980;2023-04-01T12:52:43;14.90;80.60
29201;DHT22;16244;51.956;12.980;2023-04-01T12:55:40;15.00;81.90
29201;DHT22;16244;51.956;12.980;2023-04-01T12:58:45;15.10;82.30
29201;DHT22;16244;51.956;12.980;2023-04-01T13:01:49;15.30;83.40
29201;DHT22;16244;51.956;12.980;2023-04-01T13:04:47;15.40;80.50
29201;DHT22;16244;51.956;12.980;2023-04-01T13:07:27;15.30;79.60
29201;DHT22;16244;51.956;12.980;2023-04-01T13:10:05;15.40;81.00
29201;DHT22;16244;51.956;12.980;2023-04-01T13:12:53;15.50;79.70
29201;DHT22;16244;51.956;12.980;2023-04-01T13:15:30;15.20;77.80
29201;DHT22;16244;51.956;12.980;2023-04-01T13:18:07;15.20;81.00
29201;DHT22;16244;51.956;12.980;2023-04-01T13:20:44;15.10;80.80
29201;DHT22;16244;51.956;12.980;2023-04-01T13:23:20;15.00;81.70
29201;DHT22;16244;51.956;12.980;2023-04-01T13:25:54;15.00;82.80
29201;DHT22;16244;51.956;12.980;2023-04-01T13:28:33;15.00;78.90
29201;DHT22;16244;51.956;12.980;2023-04-01T13:31:08;14.90;81.10
29201;DHT22;16244;51.956;12.980;2023-04-01T13:33:46;14.70;81.30
29201;DHT22;16244;51.956;12.980;2023-04-01T13:36:22;14.70;83.40
29201;DHT22;16244;51.956;12.980;2023-04-01T13:41:55;14.30;83.60
29201;DHT22;16244;51.956;12.980;2023-04-01T13:44:32;14.30;83.90
29201;DHT22;16244;51.956;12.980;2023-04-01T13:47:24;14.20;84.90
29201;DHT22;16244;51.956;12.980;2023-04-01T13:50:02;14.10;87.50
29201;DHT22;16244;51.956;12.980;2023-04-01T13:52:50;13.80;89.60
29201;DHT22;16244;51.956;12.980;2023-04-01T13:55:40;13.50;88.60
29201;DHT22;16244;51.956;12.980;2023-04-01T13:58:20;13.10;92.30
29201;DHT22;16244;51.956;12.980;2023-04-01T14:00:59;13.10;93.10
29201;DHT22;16244;51.956;12.980;2023-04-01T14:03:50;12.90;93.70
29201;DHT22;16244;51.956;12.980;2023-04-01T14:06:31;12.30;95.10
29201;DHT22;16244;51.956;12.980;2023-04-01T14:09:15;12.10;96.90
29201;DHT22;16244;51.956;12.980;2023-04-01T14:11:50;11.90;97.70
29201;DHT22;16244;51.956;12.980;2023-04-01T14:14:31;11.60;99.10
29201;DHT22;16244;51.956;12.980;2023-04-01T14:17:13;11.50;99.90
29201;DHT22;16244;51.956;12.980;2023-04-01T14:19:56;11.30;99.90
29201;DHT22;16244;51.956;12.980;2023-04-01T14:22:34;11.10;99.90
29201;DHT22;16244;51.956;12.980;2023-04-01T14:25:34;10.90;99.90
29201;DHT22;16244;51.956;12.980;2023-04-01T14:28:13;10.60;99.90
29201;DHT22;16244;51.956;12.980;2023-04-01T14:31:00;10.60;99.90
29201;DHT22;16244;51.956;12.980;2023-04-01T14:33:41;10.30;99.90
29201;DHT22;16244;51.956;12.980;2023-04-01T14:36:43;10.20;99.90
29201;DHT22;16244;51.956;12.980;2023-04-01T14:42:23;10.20;99.90
29201;DHT22;16244;51.956;12.980;2023-04-01T14:45:19;10.00;99.90
29201;DHT22;16244;51.956;12.980;2023-04-01T14:47:53;9.90;99.90
29201;DHT22;16244;51.956;12.980;2023-04-01T14:50:24;9.90;99.90
29201;DHT22;16244;51.956;12.980;2023-04-01T14:52:58;9.90;99.90
29201;DHT22;16244;51.956;12.980;2023-04-01T14:55:36;9.90;99.90
29201;DHT22;16244;51.956;12.980;2023-04-01T14:58:13;9.80;99.90
29201;DHT22;16244;51.956;12.980;2023-04-01T15:00:48;9.70;99.90
29201;DHT22;16244;51.956;12.980;2023-04-01T15:03:22;9.70;99.90
29201;DHT22;16244;51.956;12.980;2023-04-01T15:06:00;9.60;99.90
29201;DHT22;16244;51.956;12.980;2023-04-01T15:08:46;9.50;99.90
29201;DHT22;16244;51.956;12.980;2023-04-01T15:11:25;9.60;99.90
29201;DHT22;16244;51.956;12.980;2023-04-01T15:14:21;9.50;99.90
29201;DHT22;16244;51.956;12.980;2023-04-01T15:17:02;9.40;99.90
29201;DHT22;16244;51.956;12.980;2023-04-01T15:19:42;9.30;99.90
29201;DHT22;16244;51.956;12.980;2023-04-01T15:22:36;9.30;99.90
29201;DHT22;16244;51.956;12.980;2023-04-01T15:25:22;9.30;99.90
29201;DHT22;16244;51.956;12.980;2023-04-01T15:28:00;9.10;99.90
29201;DHT22;16244;51.956;12.980;2023-04-01T15:30:48;9.10;99.90
29201;DHT22;16244;51.956;12.980;2023-04-01T15:33:34;9.10;99.90
29201;DHT22;16244;51.956;12.980;2023-04-01T15:36:30;9.10;99.90
29201;DHT22;16244;51.956;12.980;2023-04-01T15:39:10;9.00;99.90
29201;DHT22;16244;51.956;12.980;2023-04-01T15:41:49;8.90;99.90
29201;DHT22;16244;51.956;12.980;2023-04-01T15:47:45;8.80;99.90
29201;DHT22;16244;51.956;12.980;2023-04-01T15:50:51;8.80;99.90
29201;DHT22;16244;51.956;12.980;2023-04-01T15:53:28;8.70;99.90
29201;DHT22;16244;51.956;12.980;2023-04-01T15:56:18;8.70;99.90
29201;DHT22;16244;51.956;12.980;2023-04-01T15:58:53;8.70;99.90
29201;DHT22;16244;51.956;12.980;2023-04-01T16:01:31;8.60;99.90
29201;DHT22;16244;51.956;12.980;2023-04-01T16:04:19;8.50;99.90
29201;DHT22;16244;51.956;12.980;2023-04-01T16:07:04;8.50;99.90
29201;DHT22;16244;51.956;12.980;2023-04-01T16:09:47;8.40;99.90
29201;DHT22;16244;51.956;12.980;2023-04-01T16:12:30;8.40;99.90
29201;DHT22;16244;51.956;12.980;2023-04-01T16:15:11;8.40;99.90
29201;DHT22;16244;51.956;12.980;2023-04-01T16:18:00;8.40;99.90
29201;DHT22;16244;51.956;12.980;2023-04-01T16:20:43;8.30;99.90
29201;DHT22;16244;51.956;12.980;2023-04-01T16:23:16;8.30;99.90
29201;DHT22;16244;51.956;12.980;2023-04-01T16:25:51;8.30;99.90
29201;DHT22;16244;51.956;12.980;2023-04-01T16:28:25;8.30;99.90
29201;DHT22;16244;51.956;12.980;2023-04-01T16:30:58;8.20;99.90
29201;DHT22;16244;51.956;12.980;2023-04-01T16:33:35;8.10;99.90
29201;DHT22;16244;51.956;12.980;2023-04-01T16:36:11;8.20;99.90
29201;DHT22;16244;51.956;12.980;2023-04-01T16:38:43;8.10;99.90
29201;DHT22;16244;51.956;12.980;2023-04-01T16:41:16;8.10;99.90
29201;DHT22;16244;51.956;12.980;2023-04-01T16:43:48;8.10;99.90
29201;DHT22;16244;51.956;12.980;2023-04-01T16:46:31;8.00;99.90
29201;DHT22;16244;51.956;12.980;2023-04-01T16:49:05;8.00;99.90
29201;DHT22;16244;51.956;12.980;2023-04-01T16:51:46;8.00;99.90
29201;DHT22;16244;51.956;12.980;2023-04-01T16:54:19;8.00;99.90
29201;DHT22;16244;51.956;12.980;2023-04-01T16:56:55;8.00;99.90
29201;DHT22;16244;51.956;12.980;2023-04-01T16:59:29;8.00;99.90
29201;DHT22;16244;51.956;12.980;2023-04-01T17:02:02;8.00;99.90
29201;DHT22;16244;51.956;12.980;2023-04-01T17:04:36;8.00;99.90
29201;DHT22;16244;51.956;12.980;2023-04-01T17:07:15;7.90;99.90
29201;DHT22;16244;51.956;12.980;2023-04-01T17:09:58;7.90;99.90
29201;DHT22;16244;51.956;12.980;2023-04-01T17:12:33;7.90;99.90
29201;DHT22;16244;51.956;12.980;2023-04-01T17:15:13;7.90;99.90
29201;DHT22;16244;51.956;12.980;2023-04-01T17:17:51;7.90;99.90
29201;DHT22;16244;51.956;12.980;2023-04-01T17:20:31;7.80;99.90
29201;DHT22;16244;51.956;12.980;2023-04-01T17:23:03;7.80;99.90
29201;DHT22;16244;51.956;12.980;2023-04-01T17:25:45;7.80;99.90
29201;DHT22;16244;51.956;12.980;2023-04-01T17:28:25;7.70;99.90
29201;DHT22;16244;51.956;12.980;2023-04-01T17:31:02;7.70;99.90
29201;DHT22;16244;51.956;12.980;2023-04-01T17:36:36;7.60;99.90
29201;DHT22;16244;51.956;12.980;2023-04-01T17:39:27;7.60;99.90
29201;DHT22;16244;51.956;12.980;2023-04-01T17:42:04;7.50;99.90
29201;DHT22;16244;51.956;12.980;2023-04-01T17:44:45;7.50;99.90
29201;DHT22;16244;51.956;12.980;2023-04-01T17:47:31;7.40;99.90
29201;DHT22;16244;51.956;12.980;2023-04-01T17:50:12;7.30;99.90
29201;DHT22;16244;51.956;12.980;2023-04-01T17:52:45;7.30;99.90
29201;DHT22;16244;51.956;12.980;2023-04-01T17:55:37;7.30;99.90
29201;DHT22;16244;51.956;12.980;2023-04-01T17:58:17;7.30;99.90
29201;DHT22;16244;51.956;12.980;2023-04-01T18:01:00;7.40;99.90
29201;DHT22;16244;51.956;12.980;2023-04-01T18:04:08;7.40;99.90
29201;DHT22;16244;51.956;12.980;2023-04-01T18:06:47;7.30;99.90
29201;DHT22;16244;51.956;12.980;2023-04-01T18:09:28;7.30;99.90
29201;DHT22;16244;51.956;12.980;2023-04-01T18:12:09;7.30;99.90
29201;DHT22;16244;51.956;12.980;2023-04-01T18:14:53;7.20;99.90
29201;DHT22;16244;51.956;12.980;2023-04-01T18:17:38;7.30;99.90
29201;DHT22;16244;51.956;12.980;2023-04-01T18:20:25;7.30;99.90
29201;DHT22;16244;51.956;12.980;2023-04-01T18:22:59;7.20;99.90
29201;DHT22;16244;51.956;12.980;2023-04-01T18:25:32;7.20;99.90
29201;DHT22;16244;51.956;12.980;2023-04-01T18:28:16;7.20;99.90
29201;DHT22;16244;51.956;12.980;2023-04-01T18:30:51;7.20;99.90
29201;DHT22;16244;51.956;12.980;2023-04-01T18:33:25;7.00;99.90
29201;DHT22;16244;51.956;12.980;2023-04-01T18:36:09;7.00;99.90
29201;DHT22;16244;51.956;12.980;2023-04-01T18:38:46;7.00;99.90
29201;DHT22;16244;51.956;12.980;2023-04-01T18:41:16;7.00;99.90